createdAt,value
2018-12-26T00:00:51.675Z,1.80
2018-12-26T00:03:20.142Z,1.90
2018-12-26T00:05:48.661Z,1.80
2018-12-26T00:08:17.337Z,1.80
2018-12-26T00:10:45.830Z,1.80
2018-12-26T00:13:14.392Z,2.00
2018-12-26T00:15:43.006Z,2.00
2018-12-26T00:18:11.652Z,1.80
2018-12-26T00:20:40.124Z,1.80
2018-12-26T00:23:08.601Z,1.80
2018-12-26T00:25:37.111Z,1.80
2018-12-26T00:28:05.615Z,1.70
2018-12-26T00:30:34.212Z,1.70
2018-12-26T00:33:02.730Z,1.90
2018-12-26T00:35:31.259Z,1.90
2018-12-26T00:37:59.763Z,1.70
2018-12-26T00:40:28.318Z,1.60
2018-12-26T00:42:56.877Z,1.60
2018-12-26T00:45:25.380Z,1.60
2018-12-26T00:47:53.879Z,1.50
2018-12-26T00:50:22.368Z,1.60
2018-12-26T00:52:50.922Z,1.40
2018-12-26T00:55:19.391Z,1.40
2018-12-26T00:57:47.936Z,1.60
2018-12-26T01:00:16.401Z,1.60
2018-12-26T01:02:45.160Z,1.60
2018-12-26T01:05:13.653Z,1.60
2018-12-26T01:07:42.179Z,1.70
2018-12-26T01:10:10.679Z,1.70
2018-12-26T01:12:39.248Z,1.70
2018-12-26T01:15:07.876Z,1.60
2018-12-26T01:17:36.345Z,1.80
2018-12-26T01:20:05.812Z,1.70
2018-12-26T01:22:34.363Z,1.50
2018-12-26T01:25:02.873Z,1.50
2018-12-26T01:27:31.339Z,1.40
2018-12-26T01:29:59.903Z,1.60
2018-12-26T01:32:28.404Z,1.50
2018-12-26T01:34:56.884Z,1.50
2018-12-26T01:37:25.368Z,1.60
2018-12-26T01:39:53.848Z,1.80
2018-12-26T01:42:22.301Z,1.50
2018-12-26T01:44:50.784Z,1.50
2018-12-26T01:47:19.281Z,1.50
2018-12-26T01:49:47.836Z,1.60
2018-12-26T01:52:16.317Z,1.50
2018-12-26T01:54:44.864Z,1.40
2018-12-26T01:57:13.331Z,1.40
2018-12-26T01:59:41.802Z,1.40
2018-12-26T02:02:10.281Z,1.40
2018-12-26T02:04:38.763Z,1.40
2018-12-26T02:07:07.221Z,1.40
2018-12-26T02:09:35.701Z,1.30
2018-12-26T02:12:04.247Z,1.30
2018-12-26T02:14:32.717Z,1.40
2018-12-26T02:17:01.238Z,1.30
2018-12-26T02:19:29.750Z,1.30
2018-12-26T02:21:58.239Z,1.40
2018-12-26T02:24:26.815Z,1.40
2018-12-26T02:26:55.299Z,1.40
2018-12-26T02:29:23.775Z,1.40
2018-12-26T02:31:52.257Z,1.40
2018-12-26T02:34:20.733Z,1.40
2018-12-26T02:36:49.204Z,1.40
2018-12-26T02:39:17.703Z,1.40
2018-12-26T02:41:46.247Z,1.40
2018-12-26T02:44:14.730Z,1.40
2018-12-26T02:46:43.263Z,1.30
2018-12-26T02:49:11.743Z,1.40
2018-12-26T02:51:40.215Z,1.40
2018-12-26T02:54:08.750Z,1.50
2018-12-26T02:56:46.193Z,1.50
2018-12-26T02:59:07.530Z,1.60
2018-12-26T03:01:36.014Z,1.50
2018-12-26T03:04:04.555Z,1.40
2018-12-26T03:06:33.583Z,1.50
2018-12-26T03:09:02.096Z,1.50
2018-12-26T03:11:30.629Z,1.50
2018-12-26T03:13:59.826Z,1.60
2018-12-26T03:16:28.388Z,1.60
2018-12-26T03:18:56.927Z,1.80
2018-12-26T03:21:25.453Z,1.80
2018-12-26T03:23:54.096Z,1.80
2018-12-26T03:26:22.569Z,1.90
2018-12-26T03:28:51.060Z,1.80
2018-12-26T03:31:19.576Z,1.90
2018-12-26T03:33:48.272Z,1.90
2018-12-26T03:36:16.921Z,2.00
2018-12-26T03:38:46.566Z,2.00
2018-12-26T03:41:15.302Z,1.90
2018-12-26T03:43:44.192Z,1.80
2018-12-26T03:46:14.243Z,1.80
2018-12-26T03:48:42.865Z,1.70
2018-12-26T03:51:11.606Z,1.60
2018-12-26T03:53:40.466Z,1.70
2018-12-26T03:56:09.124Z,1.60
2018-12-26T03:58:38.020Z,1.60
2018-12-26T04:01:06.721Z,1.60
2018-12-26T04:03:35.269Z,1.60
2018-12-26T04:06:03.796Z,1.70
2018-12-26T04:08:32.287Z,1.70
2018-12-26T04:11:01.133Z,1.70
2018-12-26T04:13:29.959Z,1.70
2018-12-26T04:15:58.721Z,1.70
2018-12-26T04:18:27.573Z,1.80
2018-12-26T04:20:56.400Z,1.80
2018-12-26T04:23:25.065Z,1.80
2018-12-26T04:25:53.722Z,1.70
2018-12-26T04:28:23.558Z,1.70
2018-12-26T04:30:52.210Z,1.90
2018-12-26T04:33:21.076Z,2.20
2018-12-26T04:35:49.964Z,2.20
2018-12-26T04:38:18.714Z,2.10
2018-12-26T04:40:48.854Z,2.00
2018-12-26T04:43:17.563Z,2.10
2018-12-26T04:45:46.264Z,2.10
2018-12-26T04:48:15.155Z,2.10
2018-12-26T04:50:43.780Z,2.10
2018-12-26T04:53:12.576Z,2.10
2018-12-26T04:55:41.136Z,2.10
2018-12-26T04:58:09.705Z,2.00
2018-12-26T05:00:38.362Z,2.00
2018-12-26T05:03:06.870Z,2.00
2018-12-26T05:05:35.636Z,1.90
2018-12-26T05:08:04.155Z,1.90
2018-12-26T05:10:32.704Z,1.80
2018-12-26T05:13:01.294Z,1.80
2018-12-26T05:15:29.837Z,1.80
2018-12-26T05:18:01.190Z,2.00
2018-12-26T05:20:29.832Z,2.00
2018-12-26T05:22:58.388Z,2.00
2018-12-26T05:25:26.957Z,2.00
2018-12-26T05:27:55.522Z,1.90
2018-12-26T05:30:24.037Z,1.90
2018-12-26T05:32:52.579Z,2.00
2018-12-26T05:35:21.039Z,2.00
2018-12-26T05:37:49.559Z,2.00
2018-12-26T05:40:18.033Z,2.10
2018-12-26T05:42:46.620Z,2.10
2018-12-26T05:45:16.057Z,2.10
2018-12-26T05:47:44.758Z,2.00
2018-12-26T05:50:13.329Z,2.00
2018-12-26T05:52:41.933Z,2.00
2018-12-26T05:55:10.401Z,2.00
2018-12-26T05:57:42.764Z,1.90
2018-12-26T06:00:09.088Z,1.90
2018-12-26T06:02:37.544Z,1.80
2018-12-26T06:05:06.111Z,2.00
2018-12-26T06:07:34.663Z,2.00
2018-12-26T06:10:03.388Z,1.90
2018-12-26T06:12:31.853Z,1.80
2018-12-26T06:15:00.299Z,1.80
2018-12-26T06:17:28.797Z,1.80
2018-12-26T06:19:57.340Z,1.80
2018-12-26T06:22:25.822Z,1.90
2018-12-26T06:24:54.362Z,1.90
2018-12-26T06:27:22.846Z,2.00
2018-12-26T06:29:51.390Z,2.00
2018-12-26T06:32:19.877Z,2.10
2018-12-26T06:34:48.386Z,2.00
2018-12-26T06:37:16.926Z,2.00
2018-12-26T06:39:45.423Z,2.00
2018-12-26T06:42:13.924Z,2.10
2018-12-26T06:44:42.462Z,2.10
2018-12-26T06:47:10.954Z,2.10
2018-12-26T06:49:39.491Z,2.10
2018-12-26T06:52:08.055Z,2.20
2018-12-26T06:54:36.649Z,2.30
2018-12-26T06:57:05.134Z,2.30
2018-12-26T06:59:33.607Z,2.20
2018-12-26T07:02:02.111Z,2.30
2018-12-26T07:04:30.650Z,2.30
2018-12-26T07:06:59.180Z,2.30
2018-12-26T07:09:27.654Z,2.30
2018-12-26T07:11:56.107Z,2.30
2018-12-26T07:14:24.648Z,2.20
2018-12-26T07:16:53.191Z,2.30
2018-12-26T07:19:21.661Z,2.40
2018-12-26T07:21:50.123Z,2.40
2018-12-26T07:24:18.604Z,2.40
2018-12-26T07:26:47.084Z,2.40
2018-12-26T07:29:15.592Z,2.40
2018-12-26T07:31:44.130Z,2.50
2018-12-26T07:34:12.769Z,2.50
2018-12-26T07:36:41.272Z,2.50
2018-12-26T07:39:09.796Z,2.60
2018-12-26T07:41:38.367Z,2.50
2018-12-26T07:44:06.949Z,2.70
2018-12-26T07:46:35.482Z,2.60
2018-12-26T07:49:04.048Z,2.50
2018-12-26T07:51:32.532Z,2.60
2018-12-26T07:54:01.090Z,2.60
2018-12-26T07:56:29.597Z,2.50
2018-12-26T07:58:58.051Z,2.50
2018-12-26T08:01:26.613Z,2.60
2018-12-26T08:03:55.152Z,2.70
2018-12-26T08:06:23.646Z,2.80
2018-12-26T08:08:52.260Z,2.80
2018-12-26T08:11:20.824Z,2.80
2018-12-26T08:13:49.408Z,2.60
2018-12-26T08:16:17.896Z,2.70
2018-12-26T08:18:46.431Z,2.80
2018-12-26T08:21:17.013Z,2.80
2018-12-26T08:23:45.495Z,2.90
2018-12-26T08:26:14.039Z,2.80
2018-12-26T08:28:42.607Z,2.80
2018-12-26T08:31:11.170Z,2.80
2018-12-26T08:33:39.703Z,2.80
2018-12-26T08:36:08.288Z,2.70
2018-12-26T08:38:36.876Z,2.70
2018-12-26T08:41:05.440Z,2.60
2018-12-26T08:43:33.915Z,2.60
2018-12-26T08:46:02.446Z,2.70
2018-12-26T08:48:31.052Z,2.60
2018-12-26T08:50:59.688Z,2.50
2018-12-26T08:53:28.163Z,2.40
2018-12-26T08:55:56.638Z,2.40
2018-12-26T08:58:25.113Z,2.50
2018-12-26T09:00:53.579Z,2.60
2018-12-26T09:03:22.058Z,2.60
2018-12-26T09:05:50.579Z,2.60
2018-12-26T09:08:19.056Z,2.60
2018-12-26T09:10:47.611Z,2.60
2018-12-26T09:13:16.109Z,2.60
2018-12-26T09:15:44.736Z,2.60
2018-12-26T09:18:13.367Z,2.60
2018-12-26T09:20:41.893Z,2.60
2018-12-26T09:23:10.366Z,2.70
2018-12-26T09:25:39.124Z,2.80
2018-12-26T09:28:07.619Z,2.60
2018-12-26T09:30:36.157Z,2.50
2018-12-26T09:33:04.709Z,2.70
2018-12-26T09:35:33.196Z,2.60
2018-12-26T09:38:01.658Z,2.70
2018-12-26T09:40:30.202Z,2.70
2018-12-26T09:42:58.768Z,2.60
2018-12-26T09:45:27.331Z,2.50
2018-12-26T09:47:55.794Z,2.50
2018-12-26T09:50:24.307Z,2.60
2018-12-26T09:52:52.851Z,2.60
2018-12-26T09:55:21.332Z,2.60
2018-12-26T09:57:49.846Z,2.60
2018-12-26T10:00:18.420Z,2.60
2018-12-26T10:02:46.988Z,2.50
2018-12-26T10:05:15.484Z,2.50
2018-12-26T10:07:44.016Z,2.50
2018-12-26T10:10:12.555Z,2.50
2018-12-26T10:12:41.009Z,2.60
2018-12-26T10:15:09.684Z,2.70
2018-12-26T10:17:38.244Z,2.80
2018-12-26T10:20:07.214Z,2.80
2018-12-26T10:22:35.822Z,2.70
2018-12-26T10:25:04.633Z,2.60
2018-12-26T10:27:33.268Z,2.60
2018-12-26T10:30:01.836Z,2.70
2018-12-26T10:32:30.375Z,2.80
2018-12-26T10:34:58.897Z,2.80
2018-12-26T10:37:27.385Z,2.70
2018-12-26T10:39:55.885Z,2.60
2018-12-26T10:42:24.574Z,2.70
2018-12-26T10:44:53.139Z,2.80
2018-12-26T10:47:21.665Z,2.90
2018-12-26T10:49:50.223Z,2.90
2018-12-26T10:52:18.717Z,2.90
2018-12-26T10:54:47.490Z,3.00
2018-12-26T10:57:16.111Z,2.90
2018-12-26T10:59:44.606Z,2.90
2018-12-26T11:02:13.106Z,3.00
2018-12-26T11:04:41.600Z,3.10
2018-12-26T11:07:10.194Z,3.20
2018-12-26T11:09:38.755Z,3.30
2018-12-26T11:12:07.319Z,3.40
2018-12-26T11:14:35.979Z,3.30
2018-12-26T11:17:04.553Z,3.20
2018-12-26T11:19:33.190Z,3.10
2018-12-26T11:22:01.864Z,3.20
2018-12-26T11:24:30.438Z,3.20
2018-12-26T11:26:58.916Z,3.30
2018-12-26T11:29:27.761Z,3.40
2018-12-26T11:31:56.372Z,3.50
2018-12-26T11:34:24.871Z,3.60
2018-12-26T11:36:53.526Z,3.60
2018-12-26T11:39:22.207Z,3.70
2018-12-26T11:41:50.859Z,3.70
2018-12-26T11:44:19.419Z,3.80
2018-12-26T11:46:47.941Z,3.90
2018-12-26T11:49:16.663Z,4.10
2018-12-26T11:51:45.178Z,4.00
2018-12-26T11:54:13.668Z,4.00
2018-12-26T11:56:42.151Z,4.00
2018-12-26T11:59:10.802Z,4.10
2018-12-26T12:01:39.479Z,4.10
2018-12-26T12:04:08.124Z,4.00
2018-12-26T12:06:36.820Z,4.10
2018-12-26T12:09:06.889Z,4.00
2018-12-26T12:11:35.593Z,4.10
2018-12-26T12:14:04.310Z,4.10
2018-12-26T12:16:33.000Z,4.20
2018-12-26T12:19:01.570Z,4.10
2018-12-26T12:21:30.164Z,4.10
2018-12-26T12:23:58.670Z,4.10
2018-12-26T12:26:28.357Z,4.20
2018-12-26T12:28:57.048Z,4.10
2018-12-26T12:31:25.673Z,4.10
2018-12-26T12:33:54.294Z,4.20
2018-12-26T12:36:22.984Z,4.20
2018-12-26T12:38:51.522Z,4.20
2018-12-26T12:41:20.202Z,4.30
2018-12-26T12:43:49.046Z,4.30
2018-12-26T12:46:17.598Z,4.40
2018-12-26T12:48:46.205Z,4.40
2018-12-26T12:51:14.699Z,4.50
2018-12-26T12:53:43.286Z,4.40
2018-12-26T12:56:12.314Z,4.40
2018-12-26T12:58:41.063Z,4.60
2018-12-26T13:01:09.612Z,4.40
2018-12-26T13:03:46.354Z,4.60
2018-12-26T13:06:08.694Z,4.60
2018-12-26T13:08:37.235Z,4.50
2018-12-26T13:11:05.751Z,4.40
2018-12-26T13:13:34.252Z,4.40
2018-12-26T13:16:02.747Z,4.40
2018-12-26T13:18:31.294Z,4.30
2018-12-26T13:20:59.819Z,4.40
2018-12-26T13:23:28.373Z,4.40
2018-12-26T13:25:56.931Z,4.40
2018-12-26T13:28:25.500Z,4.60
2018-12-26T13:30:54.021Z,4.50
2018-12-26T13:33:22.539Z,4.40
2018-12-26T13:35:51.073Z,4.60
2018-12-26T13:38:19.634Z,4.60
2018-12-26T13:40:48.284Z,4.60
2018-12-26T13:43:16.872Z,4.50
2018-12-26T13:45:46.973Z,4.60
2018-12-26T13:48:15.568Z,4.60
2018-12-26T13:50:44.171Z,4.80
2018-12-26T13:53:12.649Z,4.70
2018-12-26T13:55:41.104Z,4.80
2018-12-26T13:58:09.625Z,4.70
2018-12-26T14:00:38.169Z,4.70
2018-12-26T14:03:06.650Z,4.80
2018-12-26T14:05:35.234Z,4.70
2018-12-26T14:08:04.734Z,4.70
2018-12-26T14:10:33.217Z,4.70
2018-12-26T14:13:01.683Z,4.70
2018-12-26T14:15:30.169Z,4.70
2018-12-26T14:17:58.752Z,4.80
2018-12-26T14:20:27.231Z,4.60
2018-12-26T14:22:55.756Z,4.70
2018-12-26T14:25:24.328Z,4.70
2018-12-26T14:27:52.889Z,4.80
2018-12-26T14:30:21.464Z,5.00
2018-12-26T14:32:49.954Z,5.10
2018-12-26T14:35:18.609Z,5.00
2018-12-26T14:37:47.170Z,5.10
2018-12-26T14:40:16.161Z,5.00
2018-12-26T14:42:44.801Z,5.10
2018-12-26T14:45:13.364Z,5.20
2018-12-26T14:47:41.897Z,5.20
2018-12-26T14:50:10.595Z,5.30
2018-12-26T14:52:39.117Z,5.20
2018-12-26T14:55:07.741Z,5.30
2018-12-26T14:57:36.269Z,5.40
2018-12-26T15:00:05.403Z,5.60
2018-12-26T15:02:34.945Z,5.30
2018-12-26T15:05:03.516Z,5.20
2018-12-26T15:07:32.087Z,5.40
2018-12-26T15:10:00.660Z,5.30
2018-12-26T15:12:29.166Z,5.50
2018-12-26T15:14:57.660Z,5.50
2018-12-26T15:17:26.229Z,5.50
2018-12-26T15:19:54.731Z,5.50
2018-12-26T15:22:23.266Z,5.30
2018-12-26T15:24:51.938Z,5.20
2018-12-26T15:27:20.481Z,5.20
2018-12-26T15:29:49.038Z,5.10
2018-12-26T15:32:17.509Z,5.10
2018-12-26T15:34:46.006Z,5.10
2018-12-26T15:37:14.572Z,5.00
2018-12-26T15:39:43.103Z,4.80
2018-12-26T15:42:11.577Z,4.90
2018-12-26T15:44:40.107Z,5.00
2018-12-26T15:47:08.655Z,5.00
2018-12-26T15:49:37.154Z,5.00
2018-12-26T15:52:05.709Z,5.10
2018-12-26T15:54:34.232Z,5.20
2018-12-26T15:57:02.797Z,4.90
2018-12-26T15:59:31.375Z,4.90
2018-12-26T16:01:59.933Z,5.20
2018-12-26T16:04:28.372Z,5.30
2018-12-26T16:06:59.665Z,5.40
2018-12-26T16:09:28.164Z,5.10
2018-12-26T16:11:56.628Z,5.00
2018-12-26T16:14:25.128Z,5.30
2018-12-26T16:16:53.603Z,5.10
2018-12-26T16:19:22.091Z,5.30
2018-12-26T16:21:50.587Z,5.30
2018-12-26T16:24:19.233Z,5.10
2018-12-26T16:26:47.784Z,4.80
2018-12-26T16:29:16.369Z,4.60
2018-12-26T16:31:44.826Z,4.50
2018-12-26T16:34:13.300Z,4.40
2018-12-26T16:36:41.870Z,4.40
2018-12-26T16:39:10.372Z,4.50
2018-12-26T16:41:38.915Z,4.60
2018-12-26T16:44:07.411Z,4.60
2018-12-26T16:46:35.905Z,4.70
2018-12-26T16:49:04.526Z,4.80
2018-12-26T16:51:33.016Z,4.90
2018-12-26T16:54:01.562Z,4.80
2018-12-26T16:56:30.067Z,5.00
2018-12-26T16:58:58.572Z,5.00
2018-12-26T17:01:27.060Z,4.90
2018-12-26T17:03:55.544Z,4.90
2018-12-26T17:06:24.118Z,5.00
2018-12-26T17:08:52.696Z,4.90
2018-12-26T17:11:21.191Z,4.90
2018-12-26T17:13:49.833Z,4.70
2018-12-26T17:16:18.378Z,4.70
2018-12-26T17:18:48.439Z,4.40
2018-12-26T17:21:18.424Z,4.50
2018-12-26T17:23:47.223Z,4.40
2018-12-26T17:26:15.840Z,4.30
2018-12-26T17:28:44.381Z,4.30
2018-12-26T17:31:12.879Z,4.20
2018-12-26T17:33:41.530Z,4.20
2018-12-26T17:36:10.144Z,4.20
2018-12-26T17:38:38.666Z,4.20
2018-12-26T17:41:07.236Z,4.10
2018-12-26T17:43:35.724Z,4.10
2018-12-26T17:46:05.231Z,4.20
2018-12-26T17:48:33.717Z,4.10
2018-12-26T17:51:04.533Z,4.10
2018-12-26T17:53:36.115Z,4.10
2018-12-26T17:56:13.232Z,4.10
2018-12-26T17:59:10.723Z,4.00
2018-12-26T18:01:48.468Z,4.00
2018-12-26T18:04:17.015Z,4.20
2018-12-26T18:06:45.486Z,4.20
2018-12-26T18:09:13.970Z,4.30
2018-12-26T18:11:42.537Z,4.40
2018-12-26T18:14:12.494Z,4.30
2018-12-26T18:16:40.994Z,4.20
2018-12-26T18:19:09.612Z,4.40
2018-12-26T18:21:38.096Z,4.20
2018-12-26T18:24:06.735Z,4.20
2018-12-26T18:26:36.214Z,4.10
2018-12-26T18:29:04.827Z,4.20
2018-12-26T18:31:33.393Z,4.30
2018-12-26T18:34:01.873Z,4.00
2018-12-26T18:36:30.344Z,3.90
2018-12-26T18:38:58.838Z,4.00
2018-12-26T18:41:27.342Z,4.00
2018-12-26T18:43:55.860Z,4.00
2018-12-26T18:46:24.345Z,4.10
2018-12-26T18:48:52.941Z,4.30
2018-12-26T18:51:21.521Z,4.30
2018-12-26T18:53:50.096Z,4.30
2018-12-26T18:56:18.615Z,4.40
2018-12-26T18:58:47.178Z,4.30
2018-12-26T19:01:15.832Z,4.00
2018-12-26T19:03:44.322Z,3.80
2018-12-26T19:06:12.921Z,3.60
2018-12-26T19:08:42.086Z,3.70
2018-12-26T19:11:10.780Z,3.60
2018-12-26T19:13:39.302Z,3.90
2018-12-26T19:16:07.790Z,4.00
2018-12-26T19:18:36.253Z,4.10
2018-12-26T19:21:04.779Z,4.00
2018-12-26T19:23:33.251Z,4.00
2018-12-26T19:26:01.802Z,4.00
2018-12-26T19:28:30.408Z,4.10
2018-12-26T19:30:58.942Z,3.60
2018-12-26T19:33:29.685Z,3.40
2018-12-26T19:35:57.688Z,3.30
2018-12-26T19:38:26.187Z,3.60
2018-12-26T19:40:54.662Z,3.70
2018-12-26T19:43:23.140Z,3.90
2018-12-26T19:45:51.709Z,4.10
2018-12-26T19:48:20.206Z,4.10
2018-12-26T19:50:48.728Z,4.00
2018-12-26T19:53:17.277Z,4.10
2018-12-26T19:55:45.758Z,4.10
2018-12-26T19:58:14.324Z,4.00
2018-12-26T20:00:42.771Z,3.90
2018-12-26T20:03:11.294Z,3.90
2018-12-26T20:05:39.838Z,4.00
2018-12-26T20:08:08.316Z,4.00
2018-12-26T20:10:36.862Z,3.90
2018-12-26T20:13:05.402Z,3.70
2018-12-26T20:15:33.995Z,3.60
2018-12-26T20:18:02.498Z,3.50
2018-12-26T20:20:30.985Z,3.60
2018-12-26T20:22:59.558Z,3.60
2018-12-26T20:25:28.087Z,3.80
2018-12-26T20:27:56.546Z,3.80
2018-12-26T20:30:25.188Z,3.90
2018-12-26T20:32:53.652Z,3.90
2018-12-26T20:35:22.267Z,3.70
2018-12-26T20:37:50.749Z,3.50
2018-12-26T20:40:19.244Z,3.50
2018-12-26T20:42:47.711Z,3.40
2018-12-26T20:45:16.174Z,3.30
2018-12-26T20:47:44.672Z,3.30
2018-12-26T20:50:13.182Z,3.50
2018-12-26T20:52:41.729Z,3.60
2018-12-26T20:55:10.284Z,3.70
2018-12-26T20:57:38.748Z,3.90
2018-12-26T21:00:09.384Z,3.70
2018-12-26T21:02:38.002Z,3.50
2018-12-26T21:05:07.637Z,3.70
2018-12-26T21:07:36.132Z,3.60
2018-12-26T21:10:07.016Z,3.60
2018-12-26T21:12:35.552Z,3.70
2018-12-26T21:15:04.673Z,3.80
2018-12-26T21:17:33.215Z,3.90
2018-12-26T21:20:01.755Z,3.90
2018-12-26T21:22:30.363Z,4.10
2018-12-26T21:24:58.879Z,4.00
2018-12-26T21:27:27.434Z,3.80
2018-12-26T21:29:55.988Z,3.80
2018-12-26T21:32:24.536Z,3.80
2018-12-26T21:34:53.018Z,3.50
2018-12-26T21:37:21.522Z,3.20
2018-12-26T21:39:50.006Z,3.20
2018-12-26T21:42:18.505Z,3.20
2018-12-26T21:44:46.958Z,3.00
2018-12-26T21:47:15.523Z,3.10
2018-12-26T21:49:44.059Z,3.00
2018-12-26T21:52:12.566Z,2.90
2018-12-26T21:54:41.034Z,3.00
2018-12-26T21:57:09.510Z,3.10
2018-12-26T21:59:37.980Z,3.00
2018-12-26T22:02:06.488Z,3.20
2018-12-26T22:04:35.011Z,3.00
2018-12-26T22:07:03.546Z,2.90
2018-12-26T22:09:32.112Z,2.80
2018-12-26T22:12:00.594Z,2.90
2018-12-26T22:14:29.076Z,2.80
2018-12-26T22:16:57.642Z,2.60
2018-12-26T22:19:26.175Z,2.60
2018-12-26T22:21:54.731Z,2.50
2018-12-26T22:24:23.373Z,2.70
2018-12-26T22:26:51.901Z,2.70
2018-12-26T22:29:20.375Z,2.90
2018-12-26T22:31:48.853Z,2.90
2018-12-26T22:34:17.584Z,3.20
2018-12-26T22:36:46.144Z,3.10
2018-12-26T22:39:14.686Z,3.20
2018-12-26T22:41:43.235Z,3.30
2018-12-26T22:44:11.807Z,3.10
2018-12-26T22:46:40.305Z,3.10
2018-12-26T22:49:08.953Z,3.20
2018-12-26T22:51:41.941Z,3.30
2018-12-26T22:54:07.785Z,3.10
2018-12-26T22:56:36.263Z,3.20
2018-12-26T22:59:04.876Z,3.10
2018-12-26T23:01:33.368Z,3.10
2018-12-26T23:04:01.946Z,3.40
2018-12-26T23:06:30.543Z,3.60
2018-12-26T23:08:59.082Z,3.40
2018-12-26T23:11:27.606Z,3.30
2018-12-26T23:13:56.129Z,3.20
2018-12-26T23:16:24.659Z,3.00
2018-12-26T23:18:53.233Z,3.30
2018-12-26T23:21:21.794Z,3.30
2018-12-26T23:23:50.301Z,3.10
2018-12-26T23:26:18.779Z,3.00
2018-12-26T23:28:47.245Z,2.90
2018-12-26T23:31:15.715Z,2.90
2018-12-26T23:33:44.177Z,2.80
2018-12-26T23:36:12.672Z,2.70
2018-12-26T23:38:41.156Z,2.80
2018-12-26T23:41:09.737Z,2.70
2018-12-26T23:43:38.240Z,2.80
2018-12-26T23:46:06.710Z,3.00
2018-12-26T23:48:35.212Z,2.80
2018-12-26T23:51:03.783Z,2.70
2018-12-26T23:53:32.331Z,2.90
2018-12-26T23:56:00.857Z,3.00
2018-12-26T23:58:29.342Z,3.00
